sensor_id;sensor_type;location;lat;lon;timestamp;pressure;altitude;pressure_sealevel;temperature;humidity
53858;BME280;39763;51.188;6.690;2023-03-03T00:00:52;101937.44;;;4.36;68.15
53858;BME280;39763;51.188;6.690;2023-03-03T00:02:25;101931.34;;;4.34;68.19
53858;BME280;39763;51.188;6.690;2023-03-03T00:03:56;101930.47;;;4.35;67.86
53858;BME280;39763;51.188;6.690;2023-03-03T00:05:28;101929.72;;;4.42;67.69
53858;BME280;39763;51.188;6.690;2023-03-03T00:07:02;101922.81;;;4.44;67.29
53858;BME280;39763;51.188;6.690;2023-03-03T00:08:34;101925.38;;;4.43;67.76
53858;BME280;39763;51.188;6.690;2023-03-03T00:10:06;101926.19;;;4.37;67.41
53858;BME280;39763;51.188;6.690;2023-03-03T00:11:37;101920.91;;;4.30;68.19
53858;BME280;39763;51.188;6.690;2023-03-03T00:13:11;101920.91;;;4.30;67.53
53858;BME280;39763;51.188;6.690;2023-03-03T00:14:44;101919.97;;;4.24;68.31
53858;BME280;39763;51.188;6.690;2023-03-03T00:16:16;101920.88;;;4.28;67.93
53858;BME280;39763;51.188;6.690;2023-03-03T00:17:53;101920.00;;;4.28;67.63
53858;BME280;39763;51.188;6.690;2023-03-03T00:19:25;101928.69;;;4.28;67.67
53858;BME280;39763;51.188;6.690;2023-03-03T00:20:56;101921.75;;;4.27;68.15
53858;BME280;39763;51.188;6.690;2023-03-03T00:22:29;101929.50;;;4.24;68.15
53858;BME280;39763;51.188;6.690;2023-03-03T00:24:10;101930.34;;;4.23;67.89
53858;BME280;39763;51.188;6.690;2023-03-03T00:25:46;101937.25;;;4.21;68.28
53858;BME280;39763;51.188;6.690;2023-03-03T00:27:22;101936.38;;;4.20;68.10
53858;BME280;39763;51.188;6.690;2023-03-03T00:28:57;101935.53;;;4.23;68.50
53858;BME280;39763;51.188;6.690;2023-03-03T00:30:29;101933.88;;;4.27;68.22
53858;BME280;39763;51.188;6.690;2023-03-03T00:32:11;101942.44;;;4.21;68.41
53858;BME280;39763;51.188;6.690;2023-03-03T00:33:49;101944.25;;;4.25;68.68
53858;BME280;39763;51.188;6.690;2023-03-03T00:35:25;101936.47;;;4.27;68.32
53858;BME280;39763;51.188;6.690;2023-03-03T00:36:57;101941.69;;;4.31;68.30
53858;BME280;39763;51.188;6.690;2023-03-03T00:38:29;101933.91;;;4.33;68.26
53858;BME280;39763;51.188;6.690;2023-03-03T00:40:15;101942.69;;;4.39;67.65
53858;BME280;39763;51.188;6.690;2023-03-03T00:41:50;101947.00;;;4.39;67.71
53858;BME280;39763;51.188;6.690;2023-03-03T00:43:22;101947.06;;;4.46;67.51
53858;BME280;39763;51.188;6.690;2023-03-03T00:44:55;101944.56;;;4.52;67.38
53858;BME280;39763;51.188;6.690;2023-03-03T00:46:28;101951.56;;;4.56;67.29
53858;BME280;39763;51.188;6.690;2023-03-03T00:48:07;101956.78;;;4.58;67.48
53858;BME280;39763;51.188;6.690;2023-03-03T00:49:42;101957.66;;;4.58;67.58
53858;BME280;39763;51.188;6.690;2023-03-03T00:51:25;101956.78;;;4.58;67.35
53858;BME280;39763;51.188;6.690;2023-03-03T00:53:09;101961.03;;;4.53;67.74
53858;BME280;39763;51.188;6.690;2023-03-03T00:54:41;101953.13;;;4.45;67.63
53858;BME280;39763;51.188;6.690;2023-03-03T00:56:13;101957.50;;;4.48;67.66
53858;BME280;39763;51.188;6.690;2023-03-03T00:57:45;101954.88;;;4.45;68.01
53858;BME280;39763;51.188;6.690;2023-03-03T00:59:19;101956.63;;;4.47;67.62
53858;BME280;39763;51.188;6.690;2023-03-03T01:00:51;101957.56;;;4.52;67.64
53858;BME280;39763;51.188;6.690;2023-03-03T01:02:27;101955.00;;;4.55;67.50
53858;BME280;39763;51.188;6.690;2023-03-03T01:03:59;101955.06;;;4.63;67.41
53858;BME280;39763;51.188;6.690;2023-03-03T01:05:33;101954.28;;;4.70;66.74
53858;BME280;39763;51.188;6.690;2023-03-03T01:07:04;101965.59;;;4.72;66.71
53858;BME280;39763;51.188;6.690;2023-03-03T01:08:36;101958.66;;;4.73;66.91
53858;BME280;39763;51.188;6.690;2023-03-03T01:10:08;101967.38;;;4.79;66.64
53858;BME280;39763;51.188;6.690;2023-03-03T01:11:39;101961.41;;;4.88;66.49
53858;BME280;39763;51.188;6.690;2023-03-03T01:13:11;101970.16;;;4.96;65.96
53858;BME280;39763;51.188;6.690;2023-03-03T01:14:43;101967.53;;;4.93;65.83
53858;BME280;39763;51.188;6.690;2023-03-03T01:16:16;101971.72;;;4.79;67.01
53858;BME280;39763;51.188;6.690;2023-03-03T01:17:48;101979.41;;;4.67;67.36
53858;BME280;39763;51.188;6.690;2023-03-03T01:19:20;101970.53;;;4.49;68.42
53858;BME280;39763;51.188;6.690;2023-03-03T01:20:53;101966.06;;;4.38;68.67
53858;BME280;39763;51.188;6.690;2023-03-03T01:22:24;101970.41;;;4.37;68.73
53858;BME280;39763;51.188;6.690;2023-03-03T01:23:56;101974.84;;;4.49;68.37
53858;BME280;39763;51.188;6.690;2023-03-03T01:25:28;101968.00;;;4.54;68.09
53858;BME280;39763;51.188;6.690;2023-03-03T01:26:59;101975.03;;;4.64;67.86
53858;BME280;39763;51.188;6.690;2023-03-03T01:28:31;101974.97;;;4.56;67.86
53858;BME280;39763;51.188;6.690;2023-03-03T01:30:03;101972.34;;;4.55;67.50
53858;BME280;39763;51.188;6.690;2023-03-03T01:31:35;101968.78;;;4.48;68.27
53858;BME280;39763;51.188;6.690;2023-03-03T01:33:07;101973.91;;;4.41;68.61
53858;BME280;39763;51.188;6.690;2023-03-03T01:34:38;101972.91;;;4.30;69.18
53858;BME280;39763;51.188;6.690;2023-03-03T01:36:11;101973.78;;;4.30;69.18
53858;BME280;39763;51.188;6.690;2023-03-03T01:37:43;101966.94;;;4.38;68.64
53858;BME280;39763;51.188;6.690;2023-03-03T01:39:14;101969.72;;;4.53;68.45
53858;BME280;39763;51.188;6.690;2023-03-03T01:40:51;101981.03;;;4.55;68.42
53858;BME280;39763;51.188;6.690;2023-03-03T01:42:22;101975.69;;;4.43;68.76
53858;BME280;39763;51.188;6.690;2023-03-03T01:43:55;101973.06;;;4.42;68.87
53858;BME280;39763;51.188;6.690;2023-03-03T01:45:28;101971.19;;;4.30;69.04
53858;BME280;39763;51.188;6.690;2023-03-03T01:47:00;101979.84;;;4.31;69.11
53858;BME280;39763;51.188;6.690;2023-03-03T01:48:35;101969.44;;;4.32;69.15
53858;BME280;39763;51.188;6.690;2023-03-03T01:50:09;101977.34;;;4.38;69.18
53858;BME280;39763;51.188;6.690;2023-03-03T01:51:46;101971.34;;;4.45;68.63
53858;BME280;39763;51.188;6.690;2023-03-03T01:53:21;101978.31;;;4.48;68.88
53858;BME280;39763;51.188;6.690;2023-03-03T01:54:54;101969.63;;;4.47;68.58
53858;BME280;39763;51.188;6.690;2023-03-03T01:56:27;101965.41;;;4.55;68.46
53858;BME280;39763;51.188;6.690;2023-03-03T01:58:00;101966.19;;;4.50;68.33
53858;BME280;39763;51.188;6.690;2023-03-03T01:59:34;101978.28;;;4.43;68.55
53858;BME280;39763;51.188;6.690;2023-03-03T02:01:06;101971.25;;;4.36;69.01
53858;BME280;39763;51.188;6.690;2023-03-03T02:02:39;101974.56;;;4.24;69.12
53858;BME280;39763;51.188;6.690;2023-03-03T02:04:12;101971.94;;;4.23;69.41
53858;BME280;39763;51.188;6.690;2023-03-03T02:05:44;101965.03;;;4.25;69.44
53858;BME280;39763;51.188;6.690;2023-03-03T02:07:17;101965.78;;;4.15;69.52
53858;BME280;39763;51.188;6.690;2023-03-03T02:08:50;101964.13;;;4.21;69.62
53858;BME280;39763;51.188;6.690;2023-03-03T02:10:24;101965.03;;;4.25;69.60
53858;BME280;39763;51.188;6.690;2023-03-03T02:11:58;101969.34;;;4.23;69.17
53858;BME280;39763;51.188;6.690;2023-03-03T02:13:31;101971.88;;;4.18;69.31
53858;BME280;39763;51.188;6.690;2023-03-03T02:15:14;101971.06;;;4.21;69.46
53858;BME280;39763;51.188;6.690;2023-03-03T02:16:46;101967.69;;;4.31;69.24
53858;BME280;39763;51.188;6.690;2023-03-03T02:18:18;101965.28;;;4.43;68.68
53858;BME280;39763;51.188;6.690;2023-03-03T02:19:51;101964.50;;;4.52;68.07
53858;BME280;39763;51.188;6.690;2023-03-03T02:21:27;101967.19;;;4.59;68.01
53858;BME280;39763;51.188;6.690;2023-03-03T02:23:03;101964.72;;;4.70;67.80
53858;BME280;39763;51.188;6.690;2023-03-03T02:24:37;101963.03;;;4.78;67.36
53858;BME280;39763;51.188;6.690;2023-03-03T02:26:14;101957.84;;;4.80;67.15
53858;BME280;39763;51.188;6.690;2023-03-03T02:27:46;101959.59;;;4.81;66.76
53858;BME280;39763;51.188;6.690;2023-03-03T02:29:17;101959.59;;;4.81;67.21
53858;BME280;39763;51.188;6.690;2023-03-03T02:30:52;101963.09;;;4.83;66.84
53858;BME280;39763;51.188;6.690;2023-03-03T02:32:24;101964.00;;;4.86;66.87
53858;BME280;39763;51.188;6.690;2023-03-03T02:33:56;101967.50;;;4.87;66.66
53858;BME280;39763;51.188;6.690;2023-03-03T02:35:29;101975.31;;;4.90;66.79
53858;BME280;39763;51.188;6.690;2023-03-03T02:37:01;101968.44;;;4.96;66.84
53858;BME280;39763;51.188;6.690;2023-03-03T02:38:35;101966.75;;;5.00;66.59
53858;BME280;39763;51.188;6.690;2023-03-03T02:40:09;101972.00;;;5.06;65.92
53858;BME280;39763;51.188;6.690;2023-03-03T02:41:45;101975.47;;;5.04;66.39
53858;BME280;39763;51.188;6.690;2023-03-03T02:43:19;101976.25;;;4.98;66.47
53858;BME280;39763;51.188;6.690;2023-03-03T02:44:54;101965.78;;;4.92;66.15
53858;BME280;39763;51.188;6.690;2023-03-03T02:46:27;101975.31;;;4.91;66.43
53858;BME280;39763;51.188;6.690;2023-03-03T02:47:59;101970.97;;;4.89;66.13
53858;BME280;39763;51.188;6.690;2023-03-03T02:49:33;101971.78;;;4.83;66.72
53858;BME280;39763;51.188;6.690;2023-03-03T02:51:05;101971.84;;;4.92;66.91
53858;BME280;39763;51.188;6.690;2023-03-03T02:52:36;101973.66;;;4.98;66.45
53858;BME280;39763;51.188;6.690;2023-03-03T02:54:08;101967.59;;;4.99;66.27
53858;BME280;39763;51.188;6.690;2023-03-03T02:55:40;101967.56;;;4.96;66.22
53858;BME280;39763;51.188;6.690;2023-03-03T02:57:13;101969.34;;;5.00;66.36
53858;BME280;39763;51.188;6.690;2023-03-03T02:58:45;101978.94;;;5.04;66.06
53858;BME280;39763;51.188;6.690;2023-03-03T03:00:16;101971.97;;;5.02;65.60
53858;BME280;39763;51.188;6.690;2023-03-03T03:01:48;101965.91;;;5.04;65.91
53858;BME280;39763;51.188;6.690;2023-03-03T03:03:22;101972.88;;;5.08;65.62
53858;BME280;39763;51.188;6.690;2023-03-03T03:04:54;101971.13;;;5.07;65.57
53858;BME280;39763;51.188;6.690;2023-03-03T03:06:27;101974.56;;;5.00;66.10
53858;BME280;39763;51.188;6.690;2023-03-03T03:07:59;101978.78;;;4.90;66.70
53858;BME280;39763;51.188;6.690;2023-03-03T03:09:31;101979.56;;;4.82;66.92
53858;BME280;39763;51.188;6.690;2023-03-03T03:11:03;101989.03;;;4.75;66.74
53858;BME280;39763;51.188;6.690;2023-03-03T03:12:38;101986.41;;;4.71;67.70
53858;BME280;39763;51.188;6.690;2023-03-03T03:14:10;101991.56;;;4.68;67.83
53858;BME280;39763;51.188;6.690;2023-03-03T03:15:44;101990.69;;;4.67;68.11
53858;BME280;39763;51.188;6.690;2023-03-03T03:17:16;101980.28;;;4.67;67.45
53858;BME280;39763;51.188;6.690;2023-03-03T03:18:49;101982.81;;;4.63;67.92
53858;BME280;39763;51.188;6.690;2023-03-03T03:20:21;101989.63;;;4.51;68.46
53858;BME280;39763;51.188;6.690;2023-03-03T03:21:53;101983.53;;;4.49;68.75
53858;BME280;39763;51.188;6.690;2023-03-03T03:23:25;101999.97;;;4.47;68.57
53858;BME280;39763;51.188;6.690;2023-03-03T03:24:56;101990.31;;;4.37;69.07
53858;BME280;39763;51.188;6.690;2023-03-03T03:26:28;101999.03;;;4.39;68.98
53858;BME280;39763;51.188;6.690;2023-03-03T03:28:02;101999.81;;;4.33;69.23
53858;BME280;39763;51.188;6.690;2023-03-03T03:29:33;101994.59;;;4.32;68.94
53858;BME280;39763;51.188;6.690;2023-03-03T03:31:05;101998.06;;;4.32;69.24
53858;BME280;39763;51.188;6.690;2023-03-03T03:32:38;102003.25;;;4.32;69.51
53858;BME280;39763;51.188;6.690;2023-03-03T03:34:10;101999.75;;;4.27;69.31
53858;BME280;39763;51.188;6.690;2023-03-03T03:35:42;101993.72;;;4.33;69.23
53858;BME280;39763;51.188;6.690;2023-03-03T03:37:17;101985.94;;;4.34;69.50
53858;BME280;39763;51.188;6.690;2023-03-03T03:38:50;101987.66;;;4.29;69.41
53858;BME280;39763;51.188;6.690;2023-03-03T03:40:22;101977.25;;;4.32;69.40
53858;BME280;39763;51.188;6.690;2023-03-03T03:41:56;101983.38;;;4.36;69.51
53858;BME280;39763;51.188;6.690;2023-03-03T03:43:29;101985.19;;;4.41;69.26
53858;BME280;39763;51.188;6.690;2023-03-03T03:45:01;101986.97;;;4.47;68.86
53858;BME280;39763;51.188;6.690;2023-03-03T03:46:33;101993.03;;;4.47;68.98
53858;BME280;39763;51.188;6.690;2023-03-03T03:48:05;101998.28;;;4.50;68.79
53858;BME280;39763;51.188;6.690;2023-03-03T03:49:37;101998.28;;;4.50;68.89
53858;BME280;39763;51.188;6.690;2023-03-03T03:51:09;101998.22;;;4.43;69.00
53858;BME280;39763;51.188;6.690;2023-03-03T03:52:41;101986.78;;;4.29;69.21
53858;BME280;39763;51.188;6.690;2023-03-03T03:54:14;101989.34;;;4.27;69.50
53858;BME280;39763;51.188;6.690;2023-03-03T03:55:46;101989.41;;;4.33;69.07
53858;BME280;39763;51.188;6.690;2023-03-03T03:57:19;101986.00;;;4.37;68.99
53858;BME280;39763;51.188;6.690;2023-03-03T03:58:52;101990.41;;;4.43;68.64
53858;BME280;39763;51.188;6.690;2023-03-03T04:00:24;101989.44;;;4.36;68.55
53858;BME280;39763;51.188;6.690;2023-03-03T04:02:00;101999.75;;;4.27;68.94
53858;BME280;39763;51.188;6.690;2023-03-03T04:03:32;102003.94;;;4.17;69.58
53858;BME280;39763;51.188;6.690;2023-03-03T04:05:04;102005.50;;;4.05;70.12
53858;BME280;39763;51.188;6.690;2023-03-03T04:06:37;101990.69;;;3.98;70.67
53858;BME280;39763;51.188;6.690;2023-03-03T04:08:10;101994.94;;;3.93;70.69
53858;BME280;39763;51.188;6.690;2023-03-03T04:09:42;101993.97;;;3.87;70.94
53858;BME280;39763;51.188;6.690;2023-03-03T04:11:14;101989.75;;;3.93;70.78
53858;BME280;39763;51.188;6.690;2023-03-03T04:12:50;101995.91;;;4.01;70.65
53858;BME280;39763;51.188;6.690;2023-03-03T04:14:23;101988.22;;;4.08;70.28
53858;BME280;39763;51.188;6.690;2023-03-03T04:15:55;101984.84;;;4.17;70.10
53858;BME280;39763;51.188;6.690;2023-03-03T04:17:26;101989.34;;;4.27;69.57
53858;BME280;39763;51.188;6.690;2023-03-03T04:18:59;101987.75;;;4.38;nan
53858;BME280;39763;51.188;6.690;2023-03-03T04:20:31;101987.78;;;4.40;69.64
53858;BME280;39763;51.188;6.690;2023-03-03T04:22:02;101986.94;;;4.42;69.16
53858;BME280;39763;51.188;6.690;2023-03-03T04:23:35;101987.81;;;4.43;68.97
53858;BME280;39763;51.188;6.690;2023-03-03T04:25:07;101997.19;;;4.32;69.75
53858;BME280;39763;51.188;6.690;2023-03-03T04:26:43;101998.03;;;4.31;69.49
53858;BME280;39763;51.188;6.690;2023-03-03T04:28:15;101992.81;;;4.26;69.76
53858;BME280;39763;51.188;6.690;2023-03-03T04:29:49;102003.09;;;4.20;70.39
53858;BME280;39763;51.188;6.690;2023-03-03T04:31:21;102001.31;;;4.16;70.18
53858;BME280;39763;51.188;6.690;2023-03-03T04:32:53;102000.47;;;4.18;70.34
53858;BME280;39763;51.188;6.690;2023-03-03T04:34:27;102003.09;;;4.20;70.26
53858;BME280;39763;51.188;6.690;2023-03-03T04:35:59;102010.16;;;4.27;70.29
53858;BME280;39763;51.188;6.690;2023-03-03T04:37:30;102011.81;;;4.22;70.16
53858;BME280;39763;51.188;6.690;2023-03-03T04:39:02;102009.19;;;4.20;70.00
53858;BME280;39763;51.188;6.690;2023-03-03T04:40:35;102006.66;;;4.25;70.01
53858;BME280;39763;51.188;6.690;2023-03-03T04:42:07;102009.19;;;4.22;69.99
53858;BME280;39763;51.188;6.690;2023-03-03T04:43:39;102011.72;;;4.17;69.76
53858;BME280;39763;51.188;6.690;2023-03-03T04:45:14;102017.00;;;4.22;70.26
53858;BME280;39763;51.188;6.690;2023-03-03T04:46:46;102013.66;;;4.29;69.59
53858;BME280;39763;51.188;6.690;2023-03-03T04:48:18;102011.03;;;4.31;69.95
53858;BME280;39763;51.188;6.690;2023-03-03T04:49:49;102014.47;;;4.27;69.69
53858;BME280;39763;51.188;6.690;2023-03-03T04:51:21;102010.06;;;4.21;69.46
53858;BME280;39763;51.188;6.690;2023-03-03T04:52:53;102021.06;;;4.00;70.24
53858;BME280;39763;51.188;6.690;2023-03-03T04:54:25;102015.63;;;3.86;70.61
53858;BME280;39763;51.188;6.690;2023-03-03T04:55:56;102023.47;;;3.89;70.48
53858;BME280;39763;51.188;6.690;2023-03-03T04:57:29;102021.06;;;4.03;70.58
53858;BME280;39763;51.188;6.690;2023-03-03T04:59:01;102023.00;;;4.15;70.32
53858;BME280;39763;51.188;6.690;2023-03-03T05:00:34;102025.72;;;4.24;69.99
53858;BME280;39763;51.188;6.690;2023-03-03T05:02:06;102018.88;;;4.32;69.35
53858;BME280;39763;51.188;6.690;2023-03-03T05:03:37;102024.13;;;4.35;68.83
53858;BME280;39763;51.188;6.690;2023-03-03T05:05:09;102019.78;;;4.36;68.51
53858;BME280;39763;51.188;6.690;2023-03-03T05:06:41;102024.88;;;4.27;69.29
53858;BME280;39763;51.188;6.690;2023-03-03T05:08:13;102022.25;;;4.25;69.48
53858;BME280;39763;51.188;6.690;2023-03-03T05:09:45;102007.50;;;4.24;69.22
53858;BME280;39763;51.188;6.690;2023-03-03T05:11:16;102026.66;;;4.32;68.84
53858;BME280;39763;51.188;6.690;2023-03-03T05:12:48;102018.97;;;4.40;69.00
53858;BME280;39763;51.188;6.690;2023-03-03T05:14:20;102025.09;;;4.43;69.07
53858;BME280;39763;51.188;6.690;2023-03-03T05:15:53;102022.53;;;4.48;68.39
53858;BME280;39763;51.188;6.690;2023-03-03T05:17:31;102022.63;;;4.54;68.06
53858;BME280;39763;51.188;6.690;2023-03-03T05:19:02;102028.75;;;4.57;68.00
53858;BME280;39763;51.188;6.690;2023-03-03T05:20:34;102030.34;;;4.48;68.00
53858;BME280;39763;51.188;6.690;2023-03-03T05:22:06;102031.88;;;4.34;68.48
53858;BME280;39763;51.188;6.690;2023-03-03T05:23:37;102031.84;;;4.29;68.32
53858;BME280;39763;51.188;6.690;2023-03-03T05:25:09;102028.28;;;4.22;68.74
53858;BME280;39763;51.188;6.690;2023-03-03T05:26:42;102033.34;;;4.12;68.99
53858;BME280;39763;51.188;6.690;2023-03-03T05:28:14;102041.88;;;4.05;69.21
53858;BME280;39763;51.188;6.690;2023-03-03T05:29:46;102040.94;;;3.98;69.81
53858;BME280;39763;51.188;6.690;2023-03-03T05:31:20;102034.97;;;4.05;69.67
53858;BME280;39763;51.188;6.690;2023-03-03T05:32:52;102038.47;;;4.07;69.54
53858;BME280;39763;51.188;6.690;2023-03-03T05:34:24;102034.16;;;4.08;69.89
53858;BME280;39763;51.188;6.690;2023-03-03T05:35:56;102030.75;;;4.12;69.65
53858;BME280;39763;51.188;6.690;2023-03-03T05:37:27;102035.91;;;4.10;69.92
53858;BME280;39763;51.188;6.690;2023-03-03T05:38:59;102032.41;;;4.08;69.72
53858;BME280;39763;51.188;6.690;2023-03-03T05:40:31;102030.59;;;4.03;69.77
53858;BME280;39763;51.188;6.690;2023-03-03T05:42:02;102026.25;;;4.02;70.10
53858;BME280;39763;51.188;6.690;2023-03-03T05:43:34;102028.88;;;4.03;69.73
53858;BME280;39763;51.188;6.690;2023-03-03T05:45:06;102037.53;;;4.04;69.86
53858;BME280;39763;51.188;6.690;2023-03-03T05:46:39;102037.47;;;3.98;69.91
53858;BME280;39763;51.188;6.690;2023-03-03T05:48:13;102039.16;;;3.96;70.24
53858;BME280;39763;51.188;6.690;2023-03-03T05:49:44;102035.78;;;4.03;70.26
53858;BME280;39763;51.188;6.690;2023-03-03T05:51:18;102036.78;;;4.11;69.89
53858;BME280;39763;51.188;6.690;2023-03-03T05:52:50;102043.78;;;4.16;70.16
53858;BME280;39763;51.188;6.690;2023-03-03T05:54:23;102038.59;;;4.16;69.87
53858;BME280;39763;51.188;6.690;2023-03-03T05:55:55;102038.69;;;4.22;69.87
53858;BME280;39763;51.188;6.690;2023-03-03T05:57:26;102045.66;;;4.25;69.71
53858;BME280;39763;51.188;6.690;2023-03-03T05:58:58;102030.78;;;4.16;69.33
53858;BME280;39763;51.188;6.690;2023-03-03T06:00:30;102030.84;;;4.19;69.87
53858;BME280;39763;51.188;6.690;2023-03-03T06:02:03;102028.31;;;4.24;69.71
53858;BME280;39763;51.188;6.690;2023-03-03T06:03:35;102042.25;;;4.29;69.27
53858;BME280;39763;51.188;6.690;2023-03-03T06:05:07;102038.72;;;4.25;69.62
53858;BME280;39763;51.188;6.690;2023-03-03T06:06:39;102043.94;;;4.25;69.34
53858;BME280;39763;51.188;6.690;2023-03-03T06:08:11;102050.91;;;4.31;69.58
53858;BME280;39763;51.188;6.690;2023-03-03T06:09:42;102042.28;;;4.32;69.11
53858;BME280;39763;51.188;6.690;2023-03-03T06:11:14;102046.56;;;4.27;68.85
53858;BME280;39763;51.188;6.690;2023-03-03T06:12:47;102051.75;;;4.27;69.25
53858;BME280;39763;51.188;6.690;2023-03-03T06:14:18;102051.88;;;4.36;69.15
53858;BME280;39763;51.188;6.690;2023-03-03T06:15:51;102055.47;;;4.47;68.48
53858;BME280;39763;51.188;6.690;2023-03-03T06:17:24;102053.72;;;4.46;68.44
53858;BME280;39763;51.188;6.690;2023-03-03T06:18:58;102059.78;;;4.44;68.09
53858;BME280;39763;51.188;6.690;2023-03-03T06:20:32;102058.81;;;4.37;68.23
53858;BME280;39763;51.188;6.690;2023-03-03T06:22:04;102071.56;;;4.19;68.85
53858;BME280;39763;51.188;6.690;2023-03-03T06:23:35;102073.22;;;4.12;68.85
53858;BME280;39763;51.188;6.690;2023-03-03T06:25:07;102080.81;;;3.99;69.51
53858;BME280;39763;51.188;6.690;2023-03-03T06:26:39;102080.88;;;4.05;69.09
53858;BME280;39763;51.188;6.690;2023-03-03T06:28:11;102083.53;;;4.08;68.95
53858;BME280;39763;51.188;6.690;2023-03-03T06:29:43;102079.97;;;4.01;69.22
53858;BME280;39763;51.188;6.690;2023-03-03T06:31:15;102074.75;;;3.98;69.34
53858;BME280;39763;51.188;6.690;2023-03-03T06:32:49;102078.88;;;3.87;69.74
53858;BME280;39763;51.188;6.690;2023-03-03T06:34:20;102085.72;;;3.80;69.96
53858;BME280;39763;51.188;6.690;2023-03-03T06:35:53;102089.16;;;3.79;69.93
53858;BME280;39763;51.188;6.690;2023-03-03T06:37:25;102090.03;;;3.80;70.29
53858;BME280;39763;51.188;6.690;2023-03-03T06:38:56;102087.44;;;3.80;70.28
53858;BME280;39763;51.188;6.690;2023-03-03T06:40:28;102088.34;;;3.82;70.29
53858;BME280;39763;51.188;6.690;2023-03-03T06:42:00;102088.41;;;3.88;70.07
53858;BME280;39763;51.188;6.690;2023-03-03T06:43:32;102093.59;;;3.86;69.95
53858;BME280;39763;51.188;6.690;2023-03-03T06:45:04;102095.31;;;3.86;70.09
53858;BME280;39763;51.188;6.690;2023-03-03T06:46:35;102089.28;;;3.85;70.39
53858;BME280;39763;51.188;6.690;2023-03-03T06:48:08;102104.03;;;3.89;70.22
53858;BME280;39763;51.188;6.690;2023-03-03T06:49:40;102107.47;;;3.88;70.27
53858;BME280;39763;51.188;6.690;2023-03-03T06:51:16;102103.09;;;3.84;70.10
53858;BME280;39763;51.188;6.690;2023-03-03T06:52:50;102110.91;;;3.84;70.33
53858;BME280;39763;51.188;6.690;2023-03-03T06:54:29;102111.88;;;3.93;69.85
53858;BME280;39763;51.188;6.690;2023-03-03T06:56:06;102112.69;;;3.88;69.82
53858;BME280;39763;51.188;6.690;2023-03-03T06:57:39;102120.44;;;3.84;69.87
53858;BME280;39763;51.188;6.690;2023-03-03T06:59:12;102110.91;;;3.86;69.59
53858;BME280;39763;51.188;6.690;2023-03-03T07:00:47;102116.09;;;3.84;69.61
53858;BME280;39763;51.188;6.690;2023-03-03T07:02:21;102110.03;;;3.84;69.75
53858;BME280;39763;51.188;6.690;2023-03-03T07:03:54;102112.53;;;3.79;69.91
53858;BME280;39763;51.188;6.690;2023-03-03T07:05:26;102119.47;;;3.79;69.94
53858;BME280;39763;51.188;6.690;2023-03-03T07:06:59;102108.06;;;3.72;70.18
53858;BME280;39763;51.188;6.690;2023-03-03T07:08:38;102117.72;;;3.78;70.18
53858;BME280;39763;51.188;6.690;2023-03-03T07:10:17;102126.41;;;3.80;70.30
53858;BME280;39763;51.188;6.690;2023-03-03T07:11:50;102120.44;;;3.85;70.00
53858;BME280;39763;51.188;6.690;2023-03-03T07:13:24;102113.50;;;3.86;69.86
53858;BME280;39763;51.188;6.690;2023-03-03T07:14:58;102120.53;;;3.92;69.76
53858;BME280;39763;51.188;6.690;2023-03-03T07:16:32;102118.91;;;3.97;69.21
53858;BME280;39763;51.188;6.690;2023-03-03T07:18:04;102112.88;;;4.01;69.23
53858;BME280;39763;51.188;6.690;2023-03-03T07:19:42;102123.28;;;4.01;69.31
53858;BME280;39763;51.188;6.690;2023-03-03T07:21:16;102121.41;;;3.92;69.12
53858;BME280;39763;51.188;6.690;2023-03-03T07:22:51;102118.84;;;3.94;69.41
53858;BME280;39763;51.188;6.690;2023-03-03T07:24:25;102121.56;;;4.00;69.44
53858;BME280;39763;51.188;6.690;2023-03-03T07:26:00;102125.09;;;4.06;69.32
53858;BME280;39763;51.188;6.690;2023-03-03T07:27:32;102127.88;;;4.18;69.34
53858;BME280;39763;51.188;6.690;2023-03-03T07:29:11;102132.41;;;4.29;68.44
53858;BME280;39763;51.188;6.690;2023-03-03T07:30:48;102130.78;;;4.37;68.53
53858;BME280;39763;51.188;6.690;2023-03-03T07:32:26;102131.66;;;4.39;68.18
53858;BME280;39763;51.188;6.690;2023-03-03T07:33:59;102137.75;;;4.39;67.78
53858;BME280;39763;51.188;6.690;2023-03-03T07:35:38;102131.75;;;4.43;67.95
53858;BME280;39763;51.188;6.690;2023-03-03T07:37:13;102145.63;;;4.45;67.64
53858;BME280;39763;51.188;6.690;2023-03-03T07:38:47;102148.97;;;4.37;67.41
53858;BME280;39763;51.188;6.690;2023-03-03T07:40:28;102144.63;;;4.36;67.54
53858;BME280;39763;51.188;6.690;2023-03-03T07:42:06;102148.22;;;4.45;67.39
53858;BME280;39763;51.188;6.690;2023-03-03T07:43:47;102143.22;;;4.57;67.65
53858;BME280;39763;51.188;6.690;2023-03-03T07:45:22;102139.97;;;4.72;67.38
53858;BME280;39763;51.188;6.690;2023-03-03T07:46:55;102138.38;;;4.85;66.92
53858;BME280;39763;51.188;6.690;2023-03-03T07:48:29;102143.63;;;4.88;66.38
53858;BME280;39763;51.188;6.690;2023-03-03T07:50:06;102134.19;;;4.97;66.42
53858;BME280;39763;51.188;6.690;2023-03-03T07:51:40;102146.47;;;5.08;66.12
53858;BME280;39763;51.188;6.690;2023-03-03T07:53:14;102147.28;;;5.05;65.60
53858;BME280;39763;51.188;6.690;2023-03-03T07:54:52;102151.56;;;4.99;65.73
53858;BME280;39763;51.188;6.690;2023-03-03T07:56:27;102147.97;;;4.90;65.13
53858;BME280;39763;51.188;6.690;2023-03-03T07:58:05;102150.59;;;4.89;65.65
53858;BME280;39763;51.188;6.690;2023-03-03T07:59:46;102151.47;;;4.91;65.62
53858;BME280;39763;51.188;6.690;2023-03-03T08:01:35;102153.13;;;4.84;65.00
53858;BME280;39763;51.188;6.690;2023-03-03T08:03:11;102155.69;;;4.81;65.32
53858;BME280;39763;51.188;6.690;2023-03-03T08:04:47;102165.97;;;4.71;65.32
53858;BME280;39763;51.188;6.690;2023-03-03T08:06:27;102165.84;;;4.65;65.51
53858;BME280;39763;51.188;6.690;2023-03-03T08:09:51;102166.06;;;4.80;65.61
53858;BME280;39763;51.188;6.690;2023-03-03T08:11:27;102167.91;;;4.85;65.76
53858;BME280;39763;51.188;6.690;2023-03-03T08:12:58;102168.78;;;4.86;65.28
53858;BME280;39763;51.188;6.690;2023-03-03T08:14:36;102168.72;;;4.83;65.53
53858;BME280;39763;51.188;6.690;2023-03-03T08:16:20;102169.53;;;4.79;65.13